createdAt,value
2018-01-28T00:02:03.207Z,95.91
2018-01-28T00:04:38.306Z,95.91
2018-01-28T00:07:13.285Z,95.71
2018-01-28T00:09:48.458Z,95.33
2018-01-28T00:12:23.433Z,95.24
2018-01-28T00:14:58.589Z,95.17
2018-01-28T00:17:33.508Z,95.12
2018-01-28T00:20:08.698Z,95.36
2018-01-28T00:22:43.702Z,95.56
2018-01-28T00:25:19.221Z,96.02
2018-01-28T00:27:54.216Z,96.37
2018-01-28T00:30:29.421Z,96.93
2018-01-28T00:33:04.344Z,97.36
2018-01-28T00:35:38.712Z,97.66
2018-01-28T00:38:14.299Z,97.68
2018-01-28T00:40:49.242Z,97.49
2018-01-28T00:43:24.479Z,97.41
2018-01-28T00:45:59.475Z,97.45
2018-01-28T00:48:34.129Z,97.77
2018-01-28T00:51:09.285Z,97.87
2018-01-28T00:53:44.085Z,97.99
2018-01-28T00:56:18.795Z,98.14
2018-01-28T00:58:54.417Z,98.20
2018-01-28T01:01:29.752Z,98.23
2018-01-28T01:04:04.924Z,98.38
2018-01-28T01:06:40.265Z,98.41
2018-01-28T01:09:15.006Z,98.32
2018-01-28T01:11:50.365Z,98.18
2018-01-28T01:14:25.256Z,98.06
2018-01-28T01:17:00.264Z,98.15
2018-01-28T01:19:35.424Z,98.26
2018-01-28T01:22:10.283Z,98.36
2018-01-28T01:24:45.248Z,98.37
2018-01-28T01:27:21.609Z,98.50
2018-01-28T01:29:56.626Z,98.55
2018-01-28T01:32:31.450Z,98.76
2018-01-28T01:35:06.304Z,99.13
2018-01-28T01:37:41.409Z,99.51
2018-01-28T01:40:16.240Z,99.72
2018-01-28T01:42:51.173Z,99.94
2018-01-28T01:45:25.279Z,100.00
2018-01-28T01:48:00.503Z,100.00
2018-01-28T01:50:35.583Z,100.00
2018-01-28T01:53:10.857Z,100.00
2018-01-28T01:55:45.860Z,100.00
2018-01-28T01:58:21.973Z,100.00
2018-01-28T02:00:57.049Z,100.00
2018-01-28T02:03:32.608Z,99.94
2018-01-28T02:06:07.175Z,100.00
2018-01-28T02:08:42.419Z,100.00
2018-01-28T02:11:17.719Z,100.00
2018-01-28T02:13:52.997Z,100.00
2018-01-28T02:16:28.183Z,100.00
2018-01-28T02:19:03.518Z,100.00
2018-01-28T02:21:38.693Z,100.00
2018-01-28T02:24:13.601Z,100.00
2018-01-28T02:26:48.533Z,100.00
2018-01-28T02:29:23.733Z,100.00
2018-01-28T02:31:58.519Z,100.00
2018-01-28T02:34:33.822Z,100.00
2018-01-28T02:37:08.989Z,100.00
2018-01-28T02:39:43.876Z,100.00
2018-01-28T02:42:19.089Z,100.00
2018-01-28T02:44:53.847Z,100.00
2018-01-28T02:47:28.958Z,100.00
2018-01-28T02:50:04.158Z,100.00
2018-01-28T02:52:39.634Z,100.00
2018-01-28T02:55:14.589Z,100.00
2018-01-28T02:57:49.697Z,100.00
2018-01-28T03:00:24.048Z,100.00
2018-01-28T03:02:58.920Z,100.00
2018-01-28T03:05:33.627Z,100.00
2018-01-28T03:08:08.405Z,100.00
2018-01-28T03:10:43.590Z,100.00
2018-01-28T03:13:18.675Z,100.00
2018-01-28T03:15:53.940Z,100.00
2018-01-28T03:18:28.932Z,100.00
2018-01-28T03:21:04.128Z,100.00
2018-01-28T03:23:39.112Z,100.00
2018-01-28T03:26:14.756Z,100.00
2018-01-28T03:28:49.772Z,100.00
2018-01-28T03:31:24.544Z,100.00
2018-01-28T03:33:59.132Z,100.00
2018-01-28T03:36:34.336Z,100.00
2018-01-28T03:39:09.440Z,100.00
2018-01-28T03:41:44.629Z,100.00
2018-01-28T03:44:19.816Z,100.00
2018-01-28T03:46:54.157Z,100.00
2018-01-28T03:49:29.903Z,100.00
2018-01-28T03:52:04.340Z,100.00
2018-01-28T03:54:39.612Z,100.00
2018-01-28T03:57:14.875Z,100.00
2018-01-28T03:59:50.088Z,100.00
2018-01-28T04:02:25.839Z,100.00
2018-01-28T04:05:00.768Z,100.00
2018-01-28T04:07:35.808Z,100.00
2018-01-28T04:10:11.107Z,100.00
2018-01-28T04:12:46.644Z,100.00
2018-01-28T04:15:22.057Z,100.00
2018-01-28T04:17:56.792Z,100.00
2018-01-28T04:20:31.957Z,100.00
2018-01-28T04:23:06.818Z,100.00
2018-01-28T04:25:41.842Z,100.00
2018-01-28T04:28:17.137Z,100.00
2018-01-28T04:30:52.217Z,100.00
2018-01-28T04:33:27.737Z,100.00
2018-01-28T04:36:02.828Z,100.00
2018-01-28T04:38:38.163Z,100.00
2018-01-28T04:41:12.553Z,100.00
2018-01-28T04:43:47.375Z,100.00
2018-01-28T04:46:22.735Z,100.00
2018-01-28T04:48:57.700Z,100.00
2018-01-28T04:51:33.300Z,100.00
2018-01-28T04:54:08.101Z,100.00
2018-01-28T04:56:43.687Z,100.00
2018-01-28T04:59:18.404Z,100.00
2018-01-28T05:01:54.974Z,100.00
2018-01-28T05:04:29.172Z,100.00
2018-01-28T05:07:04.075Z,100.00
2018-01-28T05:09:39.071Z,100.00
2018-01-28T05:12:14.202Z,100.00
2018-01-28T05:14:49.341Z,100.00
2018-01-28T05:17:24.199Z,100.00
2018-01-28T05:19:58.835Z,100.00
2018-01-28T05:22:33.143Z,100.00
2018-01-28T05:25:08.208Z,100.00
2018-01-28T05:27:43.237Z,100.00
2018-01-28T05:30:18.251Z,100.00
2018-01-28T05:32:53.197Z,100.00
2018-01-28T05:35:28.192Z,100.00
2018-01-28T05:38:03.474Z,100.00
2018-01-28T05:40:38.521Z,100.00
2018-01-28T05:43:13.017Z,100.00
2018-01-28T05:45:48.287Z,100.00
2018-01-28T05:48:23.503Z,100.00
2018-01-28T05:50:58.583Z,100.00
2018-01-28T05:53:34.158Z,100.00
2018-01-28T05:56:09.040Z,100.00
2018-01-28T05:58:44.192Z,100.00
2018-01-28T06:01:19.307Z,100.00
2018-01-28T06:03:54.476Z,100.00
2018-01-28T06:06:29.989Z,100.00
2018-01-28T06:09:04.403Z,100.00
2018-01-28T06:11:38.971Z,100.00
2018-01-28T06:14:14.331Z,100.00
2018-01-28T06:16:49.352Z,100.00
2018-01-28T06:19:24.489Z,100.00
2018-01-28T06:21:59.382Z,100.00
2018-01-28T06:24:34.397Z,100.00
2018-01-28T06:27:09.232Z,100.00
2018-01-28T06:29:44.529Z,100.00
2018-01-28T06:32:19.534Z,100.00
2018-01-28T06:34:54.817Z,100.00
2018-01-28T06:37:29.402Z,100.00
2018-01-28T06:40:03.965Z,100.00
2018-01-28T06:42:39.146Z,100.00
2018-01-28T06:45:13.411Z,100.00
2018-01-28T06:47:48.424Z,100.00
2018-01-28T06:50:24.612Z,100.00
2018-01-28T06:52:59.532Z,100.00
2018-01-28T06:55:34.727Z,100.00
2018-01-28T06:58:10.777Z,100.00
2018-01-28T07:00:48.068Z,100.00
2018-01-28T07:03:22.728Z,100.00
2018-01-28T07:05:58.115Z,100.00
2018-01-28T07:08:33.315Z,100.00
2018-01-28T07:11:08.216Z,100.00
2018-01-28T07:13:42.652Z,100.00
2018-01-28T07:16:18.198Z,100.00
2018-01-28T07:18:53.305Z,100.00
2018-01-28T07:21:28.163Z,100.00
2018-01-28T07:24:05.024Z,100.00
2018-01-28T07:26:39.975Z,100.00
2018-01-28T07:29:14.785Z,100.00
2018-01-28T07:31:50.383Z,100.00
2018-01-28T07:34:25.612Z,100.00
2018-01-28T07:37:00.429Z,100.00
2018-01-28T07:39:35.665Z,100.00
2018-01-28T07:42:10.654Z,100.00
2018-01-28T07:44:45.752Z,100.00
2018-01-28T07:47:22.277Z,100.00
2018-01-28T07:49:57.213Z,100.00
2018-01-28T07:52:32.628Z,100.00
2018-01-28T07:55:07.567Z,100.00
2018-01-28T07:57:42.092Z,100.00
2018-01-28T08:00:17.405Z,100.00
2018-01-28T08:02:52.417Z,100.00
2018-01-28T08:05:27.612Z,100.00
2018-01-28T08:08:02.136Z,100.00
2018-01-28T08:10:52.015Z,100.00
2018-01-28T08:13:32.405Z,100.00
2018-01-28T08:16:07.441Z,100.00
2018-01-28T08:18:42.341Z,100.00
2018-01-28T08:21:17.275Z,100.00
2018-01-28T08:23:52.314Z,100.00
2018-01-28T08:26:28.860Z,100.00
2018-01-28T08:29:18.509Z,100.00
2018-01-28T08:31:53.796Z,100.00
2018-01-28T08:34:28.544Z,100.00
2018-01-28T08:37:03.828Z,100.00
2018-01-28T08:39:38.952Z,100.00
2018-01-28T08:42:13.729Z,100.00
2018-01-28T08:44:48.840Z,100.00
2018-01-28T08:47:23.716Z,100.00
2018-01-28T08:49:58.818Z,100.00
2018-01-28T08:52:34.392Z,100.00
2018-01-28T08:55:09.223Z,99.77
2018-01-28T08:57:44.472Z,99.68
2018-01-28T09:00:19.567Z,99.35
2018-01-28T09:02:54.531Z,99.26
2018-01-28T09:05:29.840Z,98.93
2018-01-28T09:08:04.805Z,98.71
2018-01-28T09:10:39.792Z,98.59
2018-01-28T09:13:14.971Z,98.58
2018-01-28T09:15:49.972Z,98.50
2018-01-28T09:18:25.131Z,98.18
2018-01-28T09:21:00.573Z,97.94
2018-01-28T09:23:35.584Z,97.64
2018-01-28T09:26:10.081Z,97.07
2018-01-28T09:28:45.509Z,96.52
2018-01-28T09:31:20.504Z,95.83
2018-01-28T09:33:55.643Z,95.66
2018-01-28T09:36:30.526Z,95.24
2018-01-28T09:39:05.069Z,94.81
2018-01-28T09:41:40.308Z,94.71
2018-01-28T09:44:15.562Z,93.89
2018-01-28T09:46:50.646Z,93.55
2018-01-28T09:49:25.710Z,93.58
2018-01-28T09:52:00.217Z,93.63
2018-01-28T09:54:35.764Z,93.62
2018-01-28T09:57:10.650Z,93.24
2018-01-28T09:59:45.644Z,93.38
2018-01-28T10:02:20.828Z,93.23
2018-01-28T10:04:55.943Z,92.95
2018-01-28T10:07:30.494Z,92.34
2018-01-28T10:10:04.750Z,91.98
2018-01-28T10:12:39.239Z,91.65
2018-01-28T10:15:14.712Z,91.55
2018-01-28T10:17:49.820Z,91.57
2018-01-28T10:20:25.037Z,91.22
2018-01-28T10:22:59.707Z,91.31
2018-01-28T10:25:34.943Z,91.39
2018-01-28T10:28:09.956Z,91.09
2018-01-28T10:30:45.028Z,91.15
2018-01-28T10:33:19.806Z,91.00
2018-01-28T10:35:54.779Z,91.51
2018-01-28T10:38:30.064Z,91.58
2018-01-28T10:41:05.264Z,91.46
2018-01-28T10:43:40.327Z,91.08
2018-01-28T10:46:15.208Z,91.11
2018-01-28T10:48:50.366Z,91.55
2018-01-28T10:51:25.824Z,91.36
2018-01-28T10:54:00.869Z,91.03
2018-01-28T10:56:35.747Z,90.64
2018-01-28T10:59:10.917Z,90.10
2018-01-28T11:01:45.836Z,90.21
2018-01-28T11:04:21.127Z,90.08
2018-01-28T11:06:56.220Z,89.62
2018-01-28T11:09:31.835Z,89.91
2018-01-28T11:12:06.845Z,90.00
2018-01-28T11:14:41.897Z,89.89
2018-01-28T11:17:16.783Z,90.15
2018-01-28T11:19:51.879Z,90.19
2018-01-28T11:22:26.541Z,90.20
2018-01-28T11:25:01.632Z,90.62
2018-01-28T11:27:37.202Z,90.42
2018-01-28T11:30:11.872Z,90.56
2018-01-28T11:32:46.743Z,90.73
2018-01-28T11:35:22.887Z,90.64
2018-01-28T11:37:57.831Z,90.67
2018-01-28T11:40:32.814Z,90.50
2018-01-28T11:43:07.512Z,90.75
2018-01-28T11:45:42.307Z,90.57
2018-01-28T11:48:16.866Z,90.85
2018-01-28T11:50:51.872Z,90.95
2018-01-28T11:53:27.156Z,90.96
2018-01-28T11:56:01.957Z,90.76
2018-01-28T11:58:37.265Z,90.69
2018-01-28T12:01:12.081Z,89.97
2018-01-28T12:03:47.079Z,89.85
2018-01-28T12:06:23.368Z,89.87
2018-01-28T12:08:58.268Z,89.38
2018-01-28T12:11:33.211Z,89.40
2018-01-28T12:14:08.069Z,89.68
2018-01-28T12:16:42.874Z,89.24
2018-01-28T12:19:18.000Z,88.63
2018-01-28T12:21:52.605Z,88.82
2018-01-28T12:24:27.537Z,88.51
2018-01-28T12:27:02.433Z,88.42
2018-01-28T12:29:37.008Z,88.53
2018-01-28T12:32:11.565Z,88.35
2018-01-28T12:34:46.896Z,88.12
2018-01-28T12:37:23.127Z,87.75
2018-01-28T12:39:57.827Z,87.84
2018-01-28T12:42:33.045Z,87.56
2018-01-28T12:45:07.817Z,87.79
2018-01-28T12:47:43.107Z,87.33
2018-01-28T12:50:18.124Z,86.46
2018-01-28T12:52:53.156Z,86.21
2018-01-28T12:55:28.358Z,84.96
2018-01-28T12:58:03.156Z,85.41
2018-01-28T13:00:38.341Z,84.86
2018-01-28T13:03:13.433Z,85.08
2018-01-28T13:05:47.848Z,83.49
2018-01-28T13:08:23.335Z,83.84
2018-01-28T13:10:58.262Z,82.68
2018-01-28T13:13:33.612Z,82.60
2018-01-28T13:16:08.716Z,82.59
2018-01-28T13:18:44.102Z,82.80
2018-01-28T13:21:19.194Z,82.88
2018-01-28T13:23:53.557Z,82.41
2018-01-28T13:26:29.094Z,81.24
2018-01-28T13:29:03.688Z,81.21
2018-01-28T13:31:38.660Z,81.08
2018-01-28T13:34:14.211Z,81.73
2018-01-28T13:36:49.388Z,81.46
2018-01-28T13:39:24.692Z,81.27
2018-01-28T13:41:59.580Z,81.85
2018-01-28T13:44:34.640Z,81.77
2018-01-28T13:47:10.216Z,81.16
2018-01-28T13:49:45.163Z,81.25
2018-01-28T13:52:20.352Z,81.47
2018-01-28T13:54:55.144Z,81.46
2018-01-28T13:57:30.312Z,81.35
2018-01-28T14:00:04.924Z,81.25
2018-01-28T14:02:39.590Z,80.93
2018-01-28T14:05:14.367Z,81.25
2018-01-28T14:07:49.131Z,80.95
2018-01-28T14:10:24.560Z,81.04
2018-01-28T14:12:59.531Z,80.88
2018-01-28T14:15:34.092Z,80.73
2018-01-28T14:18:08.773Z,81.05
2018-01-28T14:20:43.175Z,80.64
2018-01-28T14:23:18.200Z,80.79
2018-01-28T14:25:53.483Z,81.43
2018-01-28T14:28:28.448Z,81.39
2018-01-28T14:31:03.199Z,81.44
2018-01-28T14:33:37.433Z,81.34
2018-01-28T14:36:12.468Z,81.27
2018-01-28T14:38:47.470Z,81.44
2018-01-28T14:41:23.725Z,81.52
2018-01-28T14:43:58.531Z,82.11
2018-01-28T14:46:33.528Z,82.09
2018-01-28T14:49:08.453Z,82.33
2018-01-28T14:51:43.444Z,82.87
2018-01-28T14:54:18.348Z,83.11
2018-01-28T14:56:53.453Z,82.96
2018-01-28T14:59:28.641Z,83.24
2018-01-28T15:02:03.924Z,83.13
2018-01-28T15:04:38.678Z,83.25
2018-01-28T15:07:13.857Z,83.15
2018-01-28T15:09:49.427Z,83.47
2018-01-28T15:12:24.215Z,83.42
2018-01-28T15:14:59.704Z,83.56
2018-01-28T15:17:34.776Z,83.74
2018-01-28T15:20:09.458Z,83.79
2018-01-28T15:22:43.936Z,83.73
2018-01-28T15:25:18.928Z,83.68
2018-01-28T15:27:54.407Z,83.39
2018-01-28T15:30:29.461Z,83.42
2018-01-28T15:33:04.270Z,83.67
2018-01-28T15:35:39.493Z,83.62
2018-01-28T15:38:14.536Z,83.21
2018-01-28T15:40:49.567Z,83.40
2018-01-28T15:43:24.780Z,83.63
2018-01-28T15:45:59.984Z,83.67
2018-01-28T15:48:35.732Z,83.19
2018-01-28T15:51:10.567Z,83.48
2018-01-28T15:53:45.395Z,83.56
2018-01-28T15:56:20.594Z,83.73
2018-01-28T15:58:55.617Z,83.91
2018-01-28T16:01:30.299Z,83.89
2018-01-28T16:04:05.349Z,83.97
2018-01-28T16:06:40.700Z,84.09
2018-01-28T16:09:15.197Z,84.16
2018-01-28T16:11:50.644Z,84.41
2018-01-28T16:14:25.661Z,84.96
2018-01-28T16:17:00.573Z,85.64
2018-01-28T16:19:35.647Z,85.89
2018-01-28T16:22:10.525Z,86.24
2018-01-28T16:24:45.236Z,86.49
2018-01-28T16:27:20.724Z,87.08
2018-01-28T16:29:55.623Z,87.39
2018-01-28T16:32:30.976Z,87.86
2018-01-28T16:35:05.651Z,88.12
2018-01-28T16:37:41.033Z,88.29
2018-01-28T16:40:15.788Z,88.47
2018-01-28T16:42:50.896Z,88.62
2018-01-28T16:45:25.580Z,88.92
2018-01-28T16:48:00.367Z,89.24
2018-01-28T16:50:35.715Z,89.62
2018-01-28T16:53:10.667Z,90.17
2018-01-28T16:55:45.668Z,90.77
2018-01-28T16:58:20.830Z,90.80
2018-01-28T17:00:55.577Z,90.83
2018-01-28T17:03:30.641Z,91.17
2018-01-28T17:06:05.699Z,91.60
2018-01-28T17:08:40.949Z,92.02
2018-01-28T17:11:15.713Z,92.35
2018-01-28T17:13:50.492Z,92.49
2018-01-28T17:16:25.964Z,92.89
2018-01-28T17:19:01.089Z,93.26
2018-01-28T17:21:36.077Z,93.45
2018-01-28T17:24:11.207Z,93.82
2018-01-28T17:26:46.725Z,94.34
2018-01-28T17:29:21.595Z,94.66
2018-01-28T17:31:56.820Z,95.14
2018-01-28T17:34:31.875Z,95.46
2018-01-28T17:37:06.744Z,95.52
2018-01-28T17:39:41.576Z,95.70
2018-01-28T17:42:16.847Z,95.93
2018-01-28T17:44:51.861Z,96.05
2018-01-28T17:47:26.770Z,96.27
2018-01-28T17:50:02.002Z,96.45
2018-01-28T17:52:37.136Z,96.77
2018-01-28T17:55:12.428Z,97.21
2018-01-28T17:57:47.895Z,97.63
2018-01-28T18:00:24.229Z,98.03
2018-01-28T18:02:59.132Z,98.31
2018-01-28T18:05:34.175Z,98.51
2018-01-28T18:08:09.141Z,98.65
2018-01-28T18:10:44.126Z,98.83
2018-01-28T18:13:18.837Z,98.93
2018-01-28T18:15:53.946Z,99.08
2018-01-28T18:18:28.937Z,99.27
2018-01-28T18:21:03.641Z,99.27
2018-01-28T18:23:39.212Z,99.14
2018-01-28T18:26:14.004Z,99.20
2018-01-28T18:28:49.229Z,99.30
2018-01-28T18:31:24.368Z,99.43
2018-01-28T18:33:59.158Z,99.61
2018-01-28T18:36:34.160Z,99.73
2018-01-28T18:39:09.048Z,99.67
2018-01-28T18:41:44.077Z,99.66
2018-01-28T18:44:19.180Z,99.76
2018-01-28T18:46:54.146Z,99.83
2018-01-28T18:49:29.214Z,99.86
2018-01-28T18:52:04.304Z,99.85
2018-01-28T18:54:39.292Z,99.92
2018-01-28T18:57:14.029Z,99.88
2018-01-28T18:59:48.941Z,99.82
2018-01-28T19:02:25.504Z,100.00
2018-01-28T19:05:00.093Z,100.00
2018-01-28T19:07:35.650Z,100.00
2018-01-28T19:10:10.120Z,100.00
2018-01-28T19:12:44.560Z,100.00
2018-01-28T19:15:19.255Z,100.00
2018-01-28T19:17:54.032Z,100.00
2018-01-28T19:20:28.998Z,100.00
2018-01-28T19:23:04.329Z,100.00
2018-01-28T19:25:39.419Z,100.00
2018-01-28T19:28:14.235Z,100.00
2018-01-28T19:30:48.684Z,100.00
2018-01-28T19:33:24.454Z,100.00
2018-01-28T19:35:59.077Z,100.00
2018-01-28T19:38:34.398Z,100.00
2018-01-28T19:41:09.262Z,100.00
2018-01-28T19:43:44.424Z,100.00
2018-01-28T19:46:19.444Z,100.00
2018-01-28T19:48:54.140Z,100.00
2018-01-28T19:51:29.174Z,100.00
2018-01-28T19:54:04.276Z,100.00
2018-01-28T19:56:39.463Z,100.00
2018-01-28T19:59:14.630Z,100.00
2018-01-28T20:01:49.693Z,100.00
2018-01-28T20:04:25.297Z,100.00
2018-01-28T20:07:00.156Z,100.00
2018-01-28T20:09:35.441Z,100.00
2018-01-28T20:12:10.166Z,100.00
2018-01-28T20:14:45.466Z,100.00
2018-01-28T20:17:20.276Z,100.00
2018-01-28T20:19:55.239Z,100.00
2018-01-28T20:22:30.482Z,100.00
2018-01-28T20:25:05.221Z,100.00
2018-01-28T20:27:40.486Z,100.00
2018-01-28T20:30:14.870Z,100.00
2018-01-28T20:32:50.529Z,100.00
2018-01-28T20:35:25.224Z,100.00
2018-01-28T20:38:00.289Z,100.00
2018-01-28T20:40:35.707Z,100.00
2018-01-28T20:43:10.502Z,100.00
2018-01-28T20:45:45.412Z,100.00
2018-01-28T20:48:20.672Z,100.00
2018-01-28T20:50:55.771Z,100.00
2018-01-28T20:53:30.732Z,100.00
2018-01-28T20:56:05.717Z,100.00
2018-01-28T20:58:40.587Z,100.00
2018-01-28T21:01:15.274Z,100.00
2018-01-28T21:03:50.380Z,100.00
2018-01-28T21:06:24.776Z,100.00
2018-01-28T21:09:00.428Z,100.00
2018-01-28T21:11:35.645Z,100.00
2018-01-28T21:14:10.538Z,100.00
2018-01-28T21:16:45.381Z,100.00
2018-01-28T21:19:20.695Z,100.00
2018-01-28T21:21:56.272Z,100.00
2018-01-28T21:24:31.406Z,100.00
2018-01-28T21:27:06.520Z,100.00
2018-01-28T21:29:41.514Z,100.00
2018-01-28T21:32:16.443Z,100.00
2018-01-28T21:34:51.660Z,100.00
2018-01-28T21:37:26.456Z,100.00
2018-01-28T21:40:01.439Z,100.00
2018-01-28T21:42:37.022Z,100.00
2018-01-28T21:45:11.681Z,100.00
2018-01-28T21:47:46.638Z,100.00
2018-01-28T21:50:21.385Z,100.00
2018-01-28T21:52:56.463Z,100.00
2018-01-28T21:55:31.541Z,100.00
2018-01-28T21:58:06.471Z,100.00
2018-01-28T22:00:41.661Z,100.00
2018-01-28T22:03:16.561Z,100.00
2018-01-28T22:05:51.556Z,100.00
2018-01-28T22:08:26.539Z,100.00
2018-01-28T22:11:01.575Z,100.00
2018-01-28T22:13:36.852Z,100.00
2018-01-28T22:16:11.493Z,100.00
2018-01-28T22:18:46.016Z,100.00
2018-01-28T22:21:21.402Z,100.00
2018-01-28T22:23:56.500Z,100.00
2018-01-28T22:26:31.986Z,100.00
2018-01-28T22:29:06.900Z,100.00
2018-01-28T22:31:42.159Z,100.00
2018-01-28T22:34:16.944Z,100.00
2018-01-28T22:36:51.845Z,100.00
2018-01-28T22:39:26.535Z,100.00
2018-01-28T22:42:01.632Z,100.00
2018-01-28T22:44:36.750Z,100.00
2018-01-28T22:47:11.831Z,100.00
2018-01-28T22:49:46.944Z,100.00
2018-01-28T22:52:21.956Z,100.00
2018-01-28T22:54:57.148Z,100.00
2018-01-28T22:57:31.958Z,100.00
2018-01-28T23:00:07.267Z,100.00
2018-01-28T23:02:42.657Z,100.00
2018-01-28T23:05:17.641Z,100.00
2018-01-28T23:07:52.771Z,100.00
2018-01-28T23:10:28.055Z,100.00
2018-01-28T23:13:03.552Z,100.00
2018-01-28T23:15:38.617Z,100.00
2018-01-28T23:18:13.811Z,100.00
2018-01-28T23:20:48.848Z,100.00
2018-01-28T23:23:25.757Z,100.00
2018-01-28T23:26:00.796Z,100.00
2018-01-28T23:28:36.197Z,100.00
2018-01-28T23:31:11.026Z,100.00
2018-01-28T23:33:46.240Z,100.00
2018-01-28T23:36:21.848Z,100.00
2018-01-28T23:38:56.941Z,100.00
2018-01-28T23:41:32.026Z,100.00
2018-01-28T23:44:06.596Z,100.00
2018-01-28T23:46:41.324Z,100.00
2018-01-28T23:49:15.821Z,100.00
2018-01-28T23:51:50.926Z,100.00
2018-01-28T23:54:25.890Z,100.00
2018-01-28T23:57:00.797Z,100.00
2018-01-28T23:59:35.867Z,100.00
